sensor_id;sensor_type;location;lat;lon;timestamp;temperature;humidity
2855;DHT22;1435;49.472;10.940;2022-09-17T00:02:35;12.10;99.90
2855;DHT22;1435;49.472;10.940;2022-09-17T00:07:38;11.90;99.90
2855;DHT22;1435;49.472;10.940;2022-09-17T00:12:41;11.90;99.90
2855;DHT22;1435;49.472;10.940;2022-09-17T00:17:42;11.90;99.90
2855;DHT22;1435;49.472;10.940;2022-09-17T00:22:44;11.80;99.90
2855;DHT22;1435;49.472;10.940;2022-09-17T00:27:47;11.70;99.90
2855;DHT22;1435;49.472;10.940;2022-09-17T00:32:49;11.60;99.90
2855;DHT22;1435;49.472;10.940;2022-09-17T00:37:53;11.50;99.90
2855;DHT22;1435;49.472;10.940;2022-09-17T00:42:56;11.60;99.90
2855;DHT22;1435;49.472;10.940;2022-09-17T00:47:59;11.60;99.90
2855;DHT22;1435;49.472;10.940;2022-09-17T00:53:04;11.60;99.90
2855;DHT22;1435;49.472;10.940;2022-09-17T00:58:10;11.50;99.90
2855;DHT22;1435;49.472;10.940;2022-09-17T01:03:13;11.50;99.90
2855;DHT22;1435;49.472;10.940;2022-09-17T01:08:21;11.50;99.90
2855;DHT22;1435;49.472;10.940;2022-09-17T01:13:34;11.50;99.90
2855;DHT22;1435;49.472;10.940;2022-09-17T01:18:47;11.60;99.90
2855;DHT22;1435;49.472;10.940;2022-09-17T01:29:39;11.50;99.90
2855;DHT22;1435;49.472;10.940;2022-09-17T01:34:51;11.40;99.90
2855;DHT22;1435;49.472;10.940;2022-09-17T01:40:00;11.40;99.90
2855;DHT22;1435;49.472;10.940;2022-09-17T01:45:08;11.40;99.90
2855;DHT22;1435;49.472;10.940;2022-09-17T01:50:19;11.30;99.90
2855;DHT22;1435;49.472;10.940;2022-09-17T01:55:24;11.30;99.90
2855;DHT22;1435;49.472;10.940;2022-09-17T02:00:27;11.40;99.90
2855;DHT22;1435;49.472;10.940;2022-09-17T02:05:33;11.30;99.90
2855;DHT22;1435;49.472;10.940;2022-09-17T02:10:41;11.40;99.90
2855;DHT22;1435;49.472;10.940;2022-09-17T02:15:48;11.40;99.90
2855;DHT22;1435;49.472;10.940;2022-09-17T02:20:59;11.40;99.90
2855;DHT22;1435;49.472;10.940;2022-09-17T02:26:05;11.30;99.90
2855;DHT22;1435;49.472;10.940;2022-09-17T02:31:08;11.30;99.90
2855;DHT22;1435;49.472;10.940;2022-09-17T02:36:12;11.20;99.90
2855;DHT22;1435;49.472;10.940;2022-09-17T02:41:15;11.20;99.90
2855;DHT22;1435;49.472;10.940;2022-09-17T02:46:33;11.20;99.90
2855;DHT22;1435;49.472;10.940;2022-09-17T02:51:43;11.10;99.90
2855;DHT22;1435;49.472;10.940;2022-09-17T02:56:54;11.20;99.90
2855;DHT22;1435;49.472;10.940;2022-09-17T03:02:00;11.20;99.90
2855;DHT22;1435;49.472;10.940;2022-09-17T03:07:07;11.20;99.90
2855;DHT22;1435;49.472;10.940;2022-09-17T03:12:09;11.20;99.90
2855;DHT22;1435;49.472;10.940;2022-09-17T03:17:11;11.10;99.90
2855;DHT22;1435;49.472;10.940;2022-09-17T03:22:15;11.20;99.90
2855;DHT22;1435;49.472;10.940;2022-09-17T03:27:17;11.20;99.90
2855;DHT22;1435;49.472;10.940;2022-09-17T03:32:19;11.30;99.90
2855;DHT22;1435;49.472;10.940;2022-09-17T03:37:22;11.20;99.90
2855;DHT22;1435;49.472;10.940;2022-09-17T03:42:23;11.20;99.90
2855;DHT22;1435;49.472;10.940;2022-09-17T03:47:25;11.30;99.90
2855;DHT22;1435;49.472;10.940;2022-09-17T03:52:28;11.30;99.90
2855;DHT22;1435;49.472;10.940;2022-09-17T03:57:30;11.20;99.90
2855;DHT22;1435;49.472;10.940;2022-09-17T04:02:31;11.30;99.90
2855;DHT22;1435;49.472;10.940;2022-09-17T04:07:35;11.20;99.90
2855;DHT22;1435;49.472;10.940;2022-09-17T04:12:36;11.20;99.90
2855;DHT22;1435;49.472;10.940;2022-09-17T04:17:38;11.20;99.90
2855;DHT22;1435;49.472;10.940;2022-09-17T04:22:41;11.20;99.90
2855;DHT22;1435;49.472;10.940;2022-09-17T04:27:43;11.20;99.90
2855;DHT22;1435;49.472;10.940;2022-09-17T04:32:45;11.20;99.90
2855;DHT22;1435;49.472;10.940;2022-09-17T04:37:52;11.10;99.90
2855;DHT22;1435;49.472;10.940;2022-09-17T04:42:55;11.10;99.90
2855;DHT22;1435;49.472;10.940;2022-09-17T04:47:58;11.00;99.90
2855;DHT22;1435;49.472;10.940;2022-09-17T04:53:02;10.90;99.90
2855;DHT22;1435;49.472;10.940;2022-09-17T04:58:04;10.90;99.90
2855;DHT22;1435;49.472;10.940;2022-09-17T05:03:06;10.90;99.90
2855;DHT22;1435;49.472;10.940;2022-09-17T05:08:09;10.90;99.90
2855;DHT22;1435;49.472;10.940;2022-09-17T05:13:11;10.90;99.90
2855;DHT22;1435;49.472;10.940;2022-09-17T05:18:12;10.90;99.90
2855;DHT22;1435;49.472;10.940;2022-09-17T05:23:15;10.90;99.90
2855;DHT22;1435;49.472;10.940;2022-09-17T05:28:17;10.90;99.90
2855;DHT22;1435;49.472;10.940;2022-09-17T05:33:19;10.90;99.90
2855;DHT22;1435;49.472;10.940;2022-09-17T05:38:22;10.80;99.90
2855;DHT22;1435;49.472;10.940;2022-09-17T05:43:24;10.70;99.90
2855;DHT22;1435;49.472;10.940;2022-09-17T05:48:26;10.70;99.90
2855;DHT22;1435;49.472;10.940;2022-09-17T05:53:29;10.70;99.90
2855;DHT22;1435;49.472;10.940;2022-09-17T05:58:31;10.80;99.90
2855;DHT22;1435;49.472;10.940;2022-09-17T06:03:33;10.80;99.90
2855;DHT22;1435;49.472;10.940;2022-09-17T06:08:36;10.90;99.90
2855;DHT22;1435;49.472;10.940;2022-09-17T06:13:38;10.90;99.90
2855;DHT22;1435;49.472;10.940;2022-09-17T06:18:42;10.80;99.90
2855;DHT22;1435;49.472;10.940;2022-09-17T06:23:46;10.80;99.90
2855;DHT22;1435;49.472;10.940;2022-09-17T06:28:47;10.70;99.90
2855;DHT22;1435;49.472;10.940;2022-09-17T06:33:49;10.60;99.90
2855;DHT22;1435;49.472;10.940;2022-09-17T06:38:52;10.60;99.90
2855;DHT22;1435;49.472;10.940;2022-09-17T06:43:54;10.60;99.90
2855;DHT22;1435;49.472;10.940;2022-09-17T06:48:55;10.40;99.90
2855;DHT22;1435;49.472;10.940;2022-09-17T06:54:00;10.50;99.90
2855;DHT22;1435;49.472;10.940;2022-09-17T06:59:02;10.40;99.90
2855;DHT22;1435;49.472;10.940;2022-09-17T07:04:03;10.40;99.90
2855;DHT22;1435;49.472;10.940;2022-09-17T07:09:06;10.50;99.90
2855;DHT22;1435;49.472;10.940;2022-09-17T07:14:09;10.60;99.90
2855;DHT22;1435;49.472;10.940;2022-09-17T07:19:11;10.60;99.90
2855;DHT22;1435;49.472;10.940;2022-09-17T07:24:14;10.50;99.90
2855;DHT22;1435;49.472;10.940;2022-09-17T07:29:15;10.50;99.90
2855;DHT22;1435;49.472;10.940;2022-09-17T07:34:18;10.60;99.90
2855;DHT22;1435;49.472;10.940;2022-09-17T07:39:21;10.50;99.90
2855;DHT22;1435;49.472;10.940;2022-09-17T07:44:23;10.50;99.90
2855;DHT22;1435;49.472;10.940;2022-09-17T07:49:24;10.50;99.90
2855;DHT22;1435;49.472;10.940;2022-09-17T07:54:28;10.60;99.90
2855;DHT22;1435;49.472;10.940;2022-09-17T07:59:30;10.60;99.90
2855;DHT22;1435;49.472;10.940;2022-09-17T08:04:32;10.60;99.90
2855;DHT22;1435;49.472;10.940;2022-09-17T08:09:35;10.50;99.90
2855;DHT22;1435;49.472;10.940;2022-09-17T08:14:36;10.60;99.90
2855;DHT22;1435;49.472;10.940;2022-09-17T08:19:38;10.60;99.90
2855;DHT22;1435;49.472;10.940;2022-09-17T08:24:41;10.60;99.90
2855;DHT22;1435;49.472;10.940;2022-09-17T08:29:44;10.70;99.90
2855;DHT22;1435;49.472;10.940;2022-09-17T08:34:46;10.80;99.90
2855;DHT22;1435;49.472;10.940;2022-09-17T08:39:49;10.80;99.90
2855;DHT22;1435;49.472;10.940;2022-09-17T08:44:51;10.80;99.90
2855;DHT22;1435;49.472;10.940;2022-09-17T08:49:56;10.80;99.90
2855;DHT22;1435;49.472;10.940;2022-09-17T08:55:05;10.80;99.90
2855;DHT22;1435;49.472;10.940;2022-09-17T09:00:10;10.90;99.90
2855;DHT22;1435;49.472;10.940;2022-09-17T09:05:16;10.90;99.90
2855;DHT22;1435;49.472;10.940;2022-09-17T09:10:22;11.00;99.90
2855;DHT22;1435;49.472;10.940;2022-09-17T09:15:36;11.00;99.90
2855;DHT22;1435;49.472;10.940;2022-09-17T09:20:44;11.10;99.90
2855;DHT22;1435;49.472;10.940;2022-09-17T09:25:56;11.20;99.90
2855;DHT22;1435;49.472;10.940;2022-09-17T09:31:09;11.20;99.90
2855;DHT22;1435;49.472;10.940;2022-09-17T09:36:14;11.30;99.90
2855;DHT22;1435;49.472;10.940;2022-09-17T09:41:26;11.20;99.90
2855;DHT22;1435;49.472;10.940;2022-09-17T09:46:40;11.30;99.90
2855;DHT22;1435;49.472;10.940;2022-09-17T09:51:53;11.30;99.90
2855;DHT22;1435;49.472;10.940;2022-09-17T09:57:03;11.40;99.90
2855;DHT22;1435;49.472;10.940;2022-09-17T10:02:07;11.40;99.90
2855;DHT22;1435;49.472;10.940;2022-09-17T10:07:10;11.50;99.90
2855;DHT22;1435;49.472;10.940;2022-09-17T10:12:17;11.50;99.90
2855;DHT22;1435;49.472;10.940;2022-09-17T10:17:20;11.60;99.90
2855;DHT22;1435;49.472;10.940;2022-09-17T10:22:25;11.70;99.90
2855;DHT22;1435;49.472;10.940;2022-09-17T10:27:31;11.70;99.90
2855;DHT22;1435;49.472;10.940;2022-09-17T10:32:34;11.90;99.90
2855;DHT22;1435;49.472;10.940;2022-09-17T10:37:43;12.00;99.90
2855;DHT22;1435;49.472;10.940;2022-09-17T10:42:47;12.10;99.90
2855;DHT22;1435;49.472;10.940;2022-09-17T10:47:49;12.00;99.90
2855;DHT22;1435;49.472;10.940;2022-09-17T10:52:53;12.00;99.90
2855;DHT22;1435;49.472;10.940;2022-09-17T10:58:02;12.10;99.90
2855;DHT22;1435;49.472;10.940;2022-09-17T11:03:20;12.20;99.90
2855;DHT22;1435;49.472;10.940;2022-09-17T11:08:31;12.20;99.90
2855;DHT22;1435;49.472;10.940;2022-09-17T11:13:41;12.30;99.90
2855;DHT22;1435;49.472;10.940;2022-09-17T11:18:50;12.20;99.90
2855;DHT22;1435;49.472;10.940;2022-09-17T11:24:24;12.30;99.90
2855;DHT22;1435;49.472;10.940;2022-09-17T11:29:45;12.40;99.90
2855;DHT22;1435;49.472;10.940;2022-09-17T11:34:52;12.40;99.90
2855;DHT22;1435;49.472;10.940;2022-09-17T11:40:01;12.50;99.90
2855;DHT22;1435;49.472;10.940;2022-09-17T11:45:12;12.50;99.90
2855;DHT22;1435;49.472;10.940;2022-09-17T11:50:19;12.50;99.90
2855;DHT22;1435;49.472;10.940;2022-09-17T11:55:26;12.60;99.90
2855;DHT22;1435;49.472;10.940;2022-09-17T12:00:45;12.70;99.90
2855;DHT22;1435;49.472;10.940;2022-09-17T12:05:55;12.70;99.90
2855;DHT22;1435;49.472;10.940;2022-09-17T12:11:08;12.80;99.90
2855;DHT22;1435;49.472;10.940;2022-09-17T12:16:19;12.80;99.90
2855;DHT22;1435;49.472;10.940;2022-09-17T12:21:28;12.80;99.90
2855;DHT22;1435;49.472;10.940;2022-09-17T12:26:45;13.00;99.90
2855;DHT22;1435;49.472;10.940;2022-09-17T12:32:18;13.10;99.90
2855;DHT22;1435;49.472;10.940;2022-09-17T12:37:32;13.20;99.90
2855;DHT22;1435;49.472;10.940;2022-09-17T12:42:59;13.30;99.90
2855;DHT22;1435;49.472;10.940;2022-09-17T12:54:05;13.20;99.90
2855;DHT22;1435;49.472;10.940;2022-09-17T13:05:10;13.30;99.90
2855;DHT22;1435;49.472;10.940;2022-09-17T13:10:45;13.20;99.90
2855;DHT22;1435;49.472;10.940;2022-09-17T13:15:57;13.20;99.90
2855;DHT22;1435;49.472;10.940;2022-09-17T13:21:05;13.20;99.90
2855;DHT22;1435;49.472;10.940;2022-09-17T13:26:15;13.30;99.90
2855;DHT22;1435;49.472;10.940;2022-09-17T13:31:19;13.30;99.90
2855;DHT22;1435;49.472;10.940;2022-09-17T13:36:46;13.20;99.90
2855;DHT22;1435;49.472;10.940;2022-09-17T13:41:59;13.00;99.90
2855;DHT22;1435;49.472;10.940;2022-09-17T13:47:23;12.90;99.90
2855;DHT22;1435;49.472;10.940;2022-09-17T13:52:46;12.90;99.90
2855;DHT22;1435;49.472;10.940;2022-09-17T13:57:49;12.90;99.90
2855;DHT22;1435;49.472;10.940;2022-09-17T14:02:51;12.90;99.90
2855;DHT22;1435;49.472;10.940;2022-09-17T14:08:10;12.70;99.90
2855;DHT22;1435;49.472;10.940;2022-09-17T14:13:24;12.70;99.90
2855;DHT22;1435;49.472;10.940;2022-09-17T14:23:59;12.90;99.90
2855;DHT22;1435;49.472;10.940;2022-09-17T14:29:07;12.90;99.90
2855;DHT22;1435;49.472;10.940;2022-09-17T14:34:18;13.20;99.90
2855;DHT22;1435;49.472;10.940;2022-09-17T14:39:26;13.40;99.90
2855;DHT22;1435;49.472;10.940;2022-09-17T14:44:30;13.60;99.90
2855;DHT22;1435;49.472;10.940;2022-09-17T14:49:35;13.60;99.90
2855;DHT22;1435;49.472;10.940;2022-09-17T14:54:39;13.70;99.90
2855;DHT22;1435;49.472;10.940;2022-09-17T14:59:51;14.00;99.90
2855;DHT22;1435;49.472;10.940;2022-09-17T15:05:15;14.20;99.90
2855;DHT22;1435;49.472;10.940;2022-09-17T15:10:21;14.30;99.90
2855;DHT22;1435;49.472;10.940;2022-09-17T15:15:24;14.50;99.90
2855;DHT22;1435;49.472;10.940;2022-09-17T15:20:28;14.50;99.90
2855;DHT22;1435;49.472;10.940;2022-09-17T15:25:35;14.60;99.90
2855;DHT22;1435;49.472;10.940;2022-09-17T15:35:58;14.50;99.90
2855;DHT22;1435;49.472;10.940;2022-09-17T15:41:23;14.50;99.90
2855;DHT22;1435;49.472;10.940;2022-09-17T15:46:29;14.60;99.90
2855;DHT22;1435;49.472;10.940;2022-09-17T15:51:34;14.70;99.90
2855;DHT22;1435;49.472;10.940;2022-09-17T15:56:39;14.60;99.90
2855;DHT22;1435;49.472;10.940;2022-09-17T16:01:53;14.70;99.90
2855;DHT22;1435;49.472;10.940;2022-09-17T16:07:22;14.70;99.90
2855;DHT22;1435;49.472;10.940;2022-09-17T16:12:26;14.50;99.90
2855;DHT22;1435;49.472;10.940;2022-09-17T16:17:41;14.70;99.90
2855;DHT22;1435;49.472;10.940;2022-09-17T16:22:44;14.60;99.90
2855;DHT22;1435;49.472;10.940;2022-09-17T16:27:51;14.60;99.90
2855;DHT22;1435;49.472;10.940;2022-09-17T16:32:54;14.60;99.90
2855;DHT22;1435;49.472;10.940;2022-09-17T16:37:56;14.60;99.90
2855;DHT22;1435;49.472;10.940;2022-09-17T16:43:01;14.40;99.90
2855;DHT22;1435;49.472;10.940;2022-09-17T16:48:06;14.20;99.90
2855;DHT22;1435;49.472;10.940;2022-09-17T16:53:10;14.20;99.90
2855;DHT22;1435;49.472;10.940;2022-09-17T16:58:13;14.20;99.90
2855;DHT22;1435;49.472;10.940;2022-09-17T17:03:15;13.80;99.90
2855;DHT22;1435;49.472;10.940;2022-09-17T17:08:16;13.70;99.90
2855;DHT22;1435;49.472;10.940;2022-09-17T17:13:20;13.70;99.90
2855;DHT22;1435;49.472;10.940;2022-09-17T17:18:23;13.60;99.90
2855;DHT22;1435;49.472;10.940;2022-09-17T17:23:27;13.30;99.90
2855;DHT22;1435;49.472;10.940;2022-09-17T17:28:34;13.20;99.90
2855;DHT22;1435;49.472;10.940;2022-09-17T17:33:40;13.20;99.90
2855;DHT22;1435;49.472;10.940;2022-09-17T17:38:42;12.80;99.90
2855;DHT22;1435;49.472;10.940;2022-09-17T17:43:45;12.80;99.90
2855;DHT22;1435;49.472;10.940;2022-09-17T17:48:47;12.90;99.90
2855;DHT22;1435;49.472;10.940;2022-09-17T17:53:49;12.90;99.90
2855;DHT22;1435;49.472;10.940;2022-09-17T17:58:56;12.80;99.90
2855;DHT22;1435;49.472;10.940;2022-09-17T18:04:02;12.80;99.90
2855;DHT22;1435;49.472;10.940;2022-09-17T18:09:09;12.80;99.90
2855;DHT22;1435;49.472;10.940;2022-09-17T18:14:17;12.70;99.90
2855;DHT22;1435;49.472;10.940;2022-09-17T18:19:19;12.70;99.90
2855;DHT22;1435;49.472;10.940;2022-09-17T18:24:21;12.70;99.90
2855;DHT22;1435;49.472;10.940;2022-09-17T18:29:25;12.70;99.90
2855;DHT22;1435;49.472;10.940;2022-09-17T18:34:26;12.50;99.90
2855;DHT22;1435;49.472;10.940;2022-09-17T18:39:34;12.60;99.90
2855;DHT22;1435;49.472;10.940;2022-09-17T18:44:38;12.50;99.90
2855;DHT22;1435;49.472;10.940;2022-09-17T18:49:40;12.40;99.90
2855;DHT22;1435;49.472;10.940;2022-09-17T18:54:41;12.30;99.90
2855;DHT22;1435;49.472;10.940;2022-09-17T19:04:49;12.30;99.90
2855;DHT22;1435;49.472;10.940;2022-09-17T19:09:57;12.10;99.90
2855;DHT22;1435;49.472;10.940;2022-09-17T19:15:02;12.20;99.90
2855;DHT22;1435;49.472;10.940;2022-09-17T19:20:04;12.10;99.90
2855;DHT22;1435;49.472;10.940;2022-09-17T19:25:11;12.10;99.90
2855;DHT22;1435;49.472;10.940;2022-09-17T19:30:15;12.10;99.90
2855;DHT22;1435;49.472;10.940;2022-09-17T19:35:17;12.00;99.90
2855;DHT22;1435;49.472;10.940;2022-09-17T19:40:22;11.80;99.90
2855;DHT22;1435;49.472;10.940;2022-09-17T19:45:28;11.80;99.90
2855;DHT22;1435;49.472;10.940;2022-09-17T19:50:31;11.80;99.90
2855;DHT22;1435;49.472;10.940;2022-09-17T19:55:32;11.80;99.90
2855;DHT22;1435;49.472;10.940;2022-09-17T20:00:36;11.80;99.90
2855;DHT22;1435;49.472;10.940;2022-09-17T20:05:38;11.60;99.90
2855;DHT22;1435;49.472;10.940;2022-09-17T20:10:40;11.70;99.90
2855;DHT22;1435;49.472;10.940;2022-09-17T20:15:43;11.60;99.90
2855;DHT22;1435;49.472;10.940;2022-09-17T20:20:47;11.60;99.90
2855;DHT22;1435;49.472;10.940;2022-09-17T20:25:51;11.40;99.90
2855;DHT22;1435;49.472;10.940;2022-09-17T20:31:01;11.40;99.90
2855;DHT22;1435;49.472;10.940;2022-09-17T20:36:09;11.30;99.90
2855;DHT22;1435;49.472;10.940;2022-09-17T20:41:14;11.30;99.90
2855;DHT22;1435;49.472;10.940;2022-09-17T20:46:21;11.30;99.90
2855;DHT22;1435;49.472;10.940;2022-09-17T20:51:24;11.20;99.90
2855;DHT22;1435;49.472;10.940;2022-09-17T20:56:27;11.00;99.90
2855;DHT22;1435;49.472;10.940;2022-09-17T21:01:31;10.90;99.90
2855;DHT22;1435;49.472;10.940;2022-09-17T21:06:35;10.80;99.90
2855;DHT22;1435;49.472;10.940;2022-09-17T21:11:37;10.90;99.90
2855;DHT22;1435;49.472;10.940;2022-09-17T21:16:40;10.90;99.90
2855;DHT22;1435;49.472;10.940;2022-09-17T21:21:42;11.00;99.90
2855;DHT22;1435;49.472;10.940;2022-09-17T21:26:44;11.10;99.90
2855;DHT22;1435;49.472;10.940;2022-09-17T21:31:48;10.90;99.90
2855;DHT22;1435;49.472;10.940;2022-09-17T21:41:50;10.90;99.90
2855;DHT22;1435;49.472;10.940;2022-09-17T21:46:53;10.90;99.90
2855;DHT22;1435;49.472;10.940;2022-09-17T21:51:56;10.80;99.90
2855;DHT22;1435;49.472;10.940;2022-09-17T21:56:58;10.90;99.90
2855;DHT22;1435;49.472;10.940;2022-09-17T22:02:01;10.90;99.90
2855;DHT22;1435;49.472;10.940;2022-09-17T22:07:04;10.80;99.90
2855;DHT22;1435;49.472;10.940;2022-09-17T22:12:05;10.80;99.90
2855;DHT22;1435;49.472;10.940;2022-09-17T22:17:09;10.80;99.90
2855;DHT22;1435;49.472;10.940;2022-09-17T22:22:10;10.80;99.90
2855;DHT22;1435;49.472;10.940;2022-09-17T22:27:12;10.80;99.90
2855;DHT22;1435;49.472;10.940;2022-09-17T22:32:15;10.80;99.90
2855;DHT22;1435;49.472;10.940;2022-09-17T22:37:17;10.80;99.90
2855;DHT22;1435;49.472;10.940;2022-09-17T22:42:19;10.80;99.90
2855;DHT22;1435;49.472;10.940;2022-09-17T22:47:22;10.70;99.90
2855;DHT22;1435;49.472;10.940;2022-09-17T22:52:23;10.60;99.90
2855;DHT22;1435;49.472;10.940;2022-09-17T22:57:25;10.60;99.90
2855;DHT22;1435;49.472;10.940;2022-09-17T23:02:28;10.60;99.90
2855;DHT22;1435;49.472;10.940;2022-09-17T23:07:30;10.70;99.90
2855;DHT22;1435;49.472;10.940;2022-09-17T23:12:32;10.60;99.90
2855;DHT22;1435;49.472;10.940;2022-09-17T23:17:35;10.60;99.90
2855;DHT22;1435;49.472;10.940;2022-09-17T23:22:36;10.60;99.90
2855;DHT22;1435;49.472;10.940;2022-09-17T23:27:38;10.50;99.90
2855;DHT22;1435;49.472;10.940;2022-09-17T23:32:42;10.60;99.90
2855;DHT22;1435;49.472;10.940;2022-09-17T23:37:43;10.50;99.90
2855;DHT22;1435;49.472;10.940;2022-09-17T23:42:45;10.50;99.90
2855;DHT22;1435;49.472;10.940;2022-09-17T23:47:48;10.50;99.90
2855;DHT22;1435;49.472;10.940;2022-09-17T23:52:50;10.40;99.90
2855;DHT22;1435;49.472;10.940;2022-09-17T23:57:51;10.40;99.90
